createdAt,value
2019-05-19T00:00:52.173Z,0.00
2019-05-19T00:01:52.626Z,0.00
2019-05-19T00:02:53.055Z,0.00
2019-05-19T00:03:53.478Z,0.00
2019-05-19T00:04:53.910Z,0.00
2019-05-19T00:05:54.356Z,0.00
2019-05-19T00:06:54.786Z,0.00
2019-05-19T00:07:55.209Z,0.00
2019-05-19T00:08:55.684Z,0.00
2019-05-19T00:09:56.092Z,0.00
2019-05-19T00:10:56.535Z,0.00
2019-05-19T00:11:56.959Z,0.00
2019-05-19T00:12:57.386Z,0.00
2019-05-19T00:13:57.805Z,0.00
2019-05-19T00:14:58.298Z,0.00
2019-05-19T00:15:58.687Z,0.00
2019-05-19T00:16:59.123Z,0.00
2019-05-19T00:17:59.558Z,0.00
2019-05-19T00:18:59.975Z,0.00
2019-05-19T00:20:00.417Z,0.00
2019-05-19T00:21:00.871Z,0.00
2019-05-19T00:22:01.272Z,0.00
2019-05-19T00:23:01.718Z,0.00
2019-05-19T00:24:02.146Z,0.00
2019-05-19T00:25:02.607Z,0.00
2019-05-19T00:26:03.033Z,0.00
2019-05-19T00:27:03.451Z,0.00
2019-05-19T00:28:03.873Z,0.00
2019-05-19T00:29:04.315Z,0.00
2019-05-19T00:30:04.846Z,0.00
2019-05-19T00:31:05.219Z,0.00
2019-05-19T00:32:05.642Z,0.00
2019-05-19T00:33:06.078Z,0.00
2019-05-19T00:34:06.487Z,0.00
2019-05-19T00:35:06.944Z,0.00
2019-05-19T00:36:07.362Z,0.00
2019-05-19T00:37:07.792Z,0.00
2019-05-19T00:38:08.226Z,0.00
2019-05-19T00:39:08.650Z,0.00
2019-05-19T00:40:09.090Z,0.00
2019-05-19T00:41:09.543Z,0.00
2019-05-19T00:42:10.008Z,0.00
2019-05-19T00:43:10.463Z,0.00
2019-05-19T00:44:10.817Z,0.00
2019-05-19T00:45:11.299Z,0.00
2019-05-19T00:46:11.689Z,0.00
2019-05-19T00:47:12.115Z,0.00
2019-05-19T00:48:13.209Z,0.00
2019-05-19T00:49:12.982Z,0.00
2019-05-19T00:50:13.433Z,0.00
2019-05-19T00:51:13.849Z,0.00
2019-05-19T00:52:14.294Z,0.00
2019-05-19T00:53:14.727Z,0.00
2019-05-19T00:54:15.145Z,0.00
2019-05-19T00:55:15.604Z,0.00
2019-05-19T00:56:16.060Z,0.00
2019-05-19T00:57:16.476Z,0.00
2019-05-19T00:58:17.577Z,0.00
2019-05-19T00:59:17.312Z,0.00
2019-05-19T01:00:17.763Z,0.00
2019-05-19T01:01:18.179Z,0.00
2019-05-19T01:02:18.622Z,0.00
2019-05-19T01:03:19.111Z,0.00
2019-05-19T01:04:19.482Z,0.00
2019-05-19T01:05:20.860Z,0.00
2019-05-19T01:06:20.376Z,0.00
2019-05-19T01:07:20.823Z,0.00
2019-05-19T01:08:21.228Z,0.00
2019-05-19T01:09:21.654Z,0.00
2019-05-19T01:10:22.193Z,0.00
2019-05-19T01:11:22.574Z,0.00
2019-05-19T01:12:22.954Z,0.00
2019-05-19T01:13:23.380Z,0.00
2019-05-19T01:14:23.833Z,0.00
2019-05-19T01:15:24.268Z,0.00
2019-05-19T01:16:24.688Z,0.00
2019-05-19T01:17:25.125Z,0.00
2019-05-19T01:18:25.568Z,0.00
2019-05-19T01:19:25.982Z,0.00
2019-05-19T01:20:26.419Z,0.00
2019-05-19T01:21:26.856Z,0.00
2019-05-19T01:22:27.431Z,0.00
2019-05-19T01:23:27.735Z,0.00
2019-05-19T01:24:28.190Z,0.00
2019-05-19T01:27:04.698Z,0.00
2019-05-19T01:28:05.142Z,0.00
2019-05-19T01:29:05.566Z,0.00
2019-05-19T01:30:05.996Z,0.00
2019-05-19T01:31:06.428Z,0.00
2019-05-19T01:32:06.854Z,0.00
2019-05-19T01:33:07.311Z,0.00
2019-05-19T01:34:07.736Z,0.00
2019-05-19T01:35:08.162Z,0.00
2019-05-19T01:36:08.605Z,0.00
2019-05-19T01:37:10.958Z,0.00
2019-05-19T01:38:09.456Z,0.00
2019-05-19T01:39:09.888Z,0.00
2019-05-19T01:40:10.335Z,0.00
2019-05-19T01:41:10.757Z,0.00
2019-05-19T01:42:11.185Z,0.00
2019-05-19T01:43:15.436Z,0.00
2019-05-19T01:44:12.063Z,0.00
2019-05-19T01:45:12.511Z,0.00
2019-05-19T01:46:12.951Z,0.00
2019-05-19T01:47:13.367Z,0.00
2019-05-19T01:48:13.786Z,0.00
2019-05-19T01:49:15.956Z,0.00
2019-05-19T01:50:18.133Z,0.00
2019-05-19T01:51:15.088Z,0.00
2019-05-19T01:52:15.523Z,0.00
2019-05-19T01:53:15.955Z,0.00
2019-05-19T01:54:16.865Z,0.00
2019-05-19T01:55:16.819Z,0.00
2019-05-19T01:56:17.253Z,0.00
2019-05-19T01:57:17.682Z,0.00
2019-05-19T01:58:18.139Z,0.00
2019-05-19T01:59:18.614Z,0.00
2019-05-19T02:00:19.021Z,0.00
2019-05-19T02:01:19.426Z,0.00
2019-05-19T02:02:21.446Z,0.00
2019-05-19T02:03:20.288Z,0.00
2019-05-19T02:04:20.731Z,0.00
2019-05-19T02:05:21.162Z,0.00
2019-05-19T02:06:21.603Z,0.00
2019-05-19T02:07:22.034Z,0.00
2019-05-19T02:08:22.449Z,0.00
2019-05-19T02:09:22.937Z,0.00
2019-05-19T02:10:23.319Z,0.00
2019-05-19T02:11:23.764Z,0.00
2019-05-19T02:12:24.180Z,0.00
2019-05-19T02:13:24.622Z,0.00
2019-05-19T02:14:25.051Z,0.00
2019-05-19T02:15:25.484Z,0.00
2019-05-19T02:16:25.924Z,0.00
2019-05-19T02:17:26.351Z,0.00
2019-05-19T02:18:26.795Z,0.00
2019-05-19T02:19:27.231Z,0.00
2019-05-19T02:20:33.392Z,0.00
2019-05-19T02:21:28.077Z,0.00
2019-05-19T02:22:28.512Z,0.00
2019-05-19T02:23:28.946Z,0.00
2019-05-19T02:24:29.374Z,0.00
2019-05-19T02:25:29.808Z,4.00
2019-05-19T02:26:30.253Z,4.00
2019-05-19T02:27:30.676Z,4.00
2019-05-19T02:28:31.112Z,4.00
2019-05-19T02:29:31.542Z,0.00
2019-05-19T02:30:32.094Z,0.00
2019-05-19T02:31:32.404Z,4.00
2019-05-19T02:32:32.857Z,4.00
2019-05-19T02:33:35.922Z,4.00
2019-05-19T02:34:35.462Z,4.00
2019-05-19T02:35:34.160Z,4.00
2019-05-19T02:36:34.574Z,8.00
2019-05-19T02:37:35.014Z,8.00
2019-05-19T02:38:35.451Z,8.00
2019-05-19T02:39:35.869Z,8.00
2019-05-19T02:40:39.088Z,12.00
2019-05-19T02:41:36.731Z,12.00
2019-05-19T02:42:37.166Z,16.00
2019-05-19T02:43:37.599Z,16.00
2019-05-19T02:44:38.042Z,16.00
2019-05-19T02:45:38.467Z,24.00
2019-05-19T02:46:38.906Z,24.00
2019-05-19T02:47:39.330Z,24.00
2019-05-19T02:48:39.767Z,32.00
2019-05-19T02:49:40.201Z,32.00
2019-05-19T02:50:51.745Z,36.00
2019-05-19T02:51:41.061Z,44.00
2019-05-19T02:52:41.498Z,48.00
2019-05-19T02:53:41.929Z,52.00
2019-05-19T02:54:42.357Z,60.00
2019-05-19T02:55:42.793Z,68.00
2019-05-19T02:56:43.267Z,76.00
2019-05-19T02:57:43.661Z,84.00
2019-05-19T02:58:44.093Z,100.00
2019-05-19T02:59:44.571Z,112.00
2019-05-19T03:00:44.977Z,124.00
2019-05-19T03:01:45.394Z,140.00
2019-05-19T03:02:45.842Z,152.00
2019-05-19T03:03:46.263Z,164.00
2019-05-19T03:04:46.702Z,180.00
2019-05-19T03:05:47.153Z,192.00
2019-05-19T03:06:48.483Z,208.00
2019-05-19T03:07:47.989Z,224.00
2019-05-19T03:08:48.431Z,240.00
2019-05-19T03:09:48.853Z,256.00
2019-05-19T03:10:49.299Z,272.00
2019-05-19T03:11:49.734Z,288.00
2019-05-19T03:12:50.158Z,296.00
2019-05-19T03:13:54.486Z,312.00
2019-05-19T03:14:51.017Z,332.00
2019-05-19T03:15:51.454Z,348.00
2019-05-19T03:16:51.883Z,372.00
2019-05-19T03:17:52.318Z,396.00
2019-05-19T03:18:52.744Z,424.00
2019-05-19T03:19:53.229Z,456.00
2019-05-19T03:21:09.780Z,488.00
2019-05-19T03:23:27.672Z,580.00
2019-05-19T03:24:28.079Z,620.00
2019-05-19T03:26:22.662Z,696.00
2019-05-19T03:28:57.173Z,804.00
2019-05-19T03:29:57.598Z,840.00
2019-05-19T03:31:52.173Z,912.00
2019-05-19T03:32:52.586Z,952.00
2019-05-19T03:34:47.207Z,1032.00
2019-05-19T03:35:47.589Z,1076.00
2019-05-19T03:37:42.145Z,1152.00
2019-05-19T03:38:42.569Z,1196.00
2019-05-19T03:40:37.138Z,1284.00
2019-05-19T03:41:37.570Z,1328.00
2019-05-19T03:43:33.129Z,1380.00
2019-05-19T03:44:33.546Z,1404.00
2019-05-19T03:46:28.137Z,1468.00
2019-05-19T03:47:28.562Z,1508.00
2019-05-19T03:49:23.142Z,1600.00
2019-05-19T03:50:23.567Z,1628.00
2019-05-19T03:52:18.143Z,1716.00
2019-05-19T03:53:18.564Z,1780.00
2019-05-19T03:55:13.138Z,1940.00
2019-05-19T03:56:13.569Z,2012.00
2019-05-19T03:58:08.140Z,2132.00
2019-05-19T03:59:08.567Z,2196.00
2019-05-19T04:01:03.126Z,2344.00
2019-05-19T04:02:03.574Z,2396.00
2019-05-19T04:03:58.134Z,2544.00
2019-05-19T04:04:58.557Z,2604.00
2019-05-19T04:06:54.098Z,2632.00
2019-05-19T04:07:54.537Z,2644.00
2019-05-19T04:09:50.083Z,2752.00
2019-05-19T04:10:50.510Z,2756.00
2019-05-19T04:11:50.947Z,2708.00
2019-05-19T04:12:51.386Z,2732.00
2019-05-19T04:13:51.813Z,2752.00
2019-05-19T04:14:52.244Z,2752.00
2019-05-19T04:15:52.683Z,2724.00
2019-05-19T04:16:53.111Z,2732.00
2019-05-19T04:17:53.547Z,2784.00
2019-05-19T04:18:53.985Z,2804.00
2019-05-19T04:19:54.413Z,2912.00
2019-05-19T04:20:54.851Z,2972.00
2019-05-19T04:21:55.283Z,3028.00
2019-05-19T04:22:55.726Z,3100.00
2019-05-19T04:23:56.153Z,3156.00
2019-05-19T04:24:56.579Z,3192.00
2019-05-19T04:25:57.024Z,3268.00
2019-05-19T04:26:57.453Z,3360.00
2019-05-19T04:27:57.885Z,3452.00
2019-05-19T04:28:58.323Z,3528.00
2019-05-19T04:29:58.756Z,3616.00
2019-05-19T04:30:59.189Z,3772.00
2019-05-19T04:31:59.623Z,3912.00
2019-05-19T04:33:00.049Z,4040.00
2019-05-19T04:34:00.502Z,4172.00
2019-05-19T04:35:00.925Z,4296.00
2019-05-19T04:36:01.358Z,4420.00
2019-05-19T04:37:01.792Z,4524.00
2019-05-19T04:38:02.228Z,4584.00
2019-05-19T04:39:02.679Z,4536.00
2019-05-19T04:40:03.101Z,4444.00
2019-05-19T04:41:03.528Z,4332.00
2019-05-19T04:42:03.966Z,4256.00
2019-05-19T04:43:04.398Z,4208.00
2019-05-19T04:44:04.836Z,4156.00
2019-05-19T04:45:05.270Z,4124.00
2019-05-19T04:46:05.708Z,4068.00
2019-05-19T04:47:06.135Z,4124.00
2019-05-19T04:48:09.404Z,4328.00
2019-05-19T04:49:07.012Z,4612.00
2019-05-19T04:50:07.444Z,4836.00
2019-05-19T04:51:07.882Z,4976.00
2019-05-19T04:52:08.316Z,5104.00
2019-05-19T04:53:08.759Z,5156.00
2019-05-19T04:54:09.187Z,5092.00
2019-05-19T04:55:09.618Z,4960.00
2019-05-19T04:56:10.051Z,4824.00
2019-05-19T04:57:10.492Z,4724.00
2019-05-19T04:58:10.922Z,4640.00
2019-05-19T04:59:11.356Z,4564.00
2019-05-19T05:00:11.797Z,4484.00
2019-05-19T05:01:12.227Z,4432.00
2019-05-19T05:02:12.666Z,4380.00
2019-05-19T05:03:13.104Z,4288.00
2019-05-19T05:04:13.537Z,4216.00
2019-05-19T05:05:13.981Z,4208.00
2019-05-19T05:06:14.410Z,4276.00
2019-05-19T05:07:14.852Z,4420.00
2019-05-19T05:08:28.716Z,4560.00
2019-05-19T05:09:15.715Z,4708.00
2019-05-19T05:10:16.148Z,4876.00
2019-05-19T05:11:16.588Z,5096.00
2019-05-19T05:12:17.019Z,5264.00
2019-05-19T05:13:17.452Z,5260.00
2019-05-19T05:14:17.950Z,5160.00
2019-05-19T05:15:18.330Z,5080.00
2019-05-19T05:16:18.812Z,5156.00
2019-05-19T05:17:19.203Z,5300.00
2019-05-19T05:18:19.648Z,5360.00
2019-05-19T05:19:20.073Z,5192.00
2019-05-19T05:20:20.506Z,5172.00
2019-05-19T05:21:20.957Z,5128.00
2019-05-19T05:22:22.514Z,5152.00
2019-05-19T05:23:21.819Z,5176.00
2019-05-19T05:24:22.253Z,5168.00
2019-05-19T05:25:22.694Z,5204.00
2019-05-19T05:26:23.125Z,5276.00
2019-05-19T05:27:23.572Z,5344.00
2019-05-19T05:28:24.003Z,5368.00
2019-05-19T05:29:24.442Z,5416.00
2019-05-19T05:30:24.878Z,5456.00
2019-05-19T05:31:25.309Z,5568.00
2019-05-19T05:32:25.749Z,5688.00
2019-05-19T05:33:26.184Z,5816.00
2019-05-19T05:34:26.627Z,6020.00
2019-05-19T05:35:27.059Z,6228.00
2019-05-19T05:36:27.919Z,6400.00
2019-05-19T05:37:27.931Z,6584.00
2019-05-19T05:38:28.407Z,6664.00
2019-05-19T05:39:28.809Z,6740.00
2019-05-19T05:40:29.242Z,6888.00
2019-05-19T05:41:29.686Z,6884.00
2019-05-19T05:42:31.872Z,6864.00
2019-05-19T05:43:30.555Z,6884.00
2019-05-19T05:44:30.991Z,6964.00
2019-05-19T05:45:31.455Z,6872.00
2019-05-19T05:46:31.880Z,6776.00
2019-05-19T05:47:32.301Z,6664.00
2019-05-19T05:48:32.754Z,6596.00
2019-05-19T05:49:33.189Z,6588.00
2019-05-19T05:50:33.620Z,6732.00
2019-05-19T05:51:34.058Z,6968.00
2019-05-19T05:52:38.700Z,7252.00
2019-05-19T05:53:34.927Z,7456.00
2019-05-19T05:54:35.370Z,7332.00
2019-05-19T05:55:35.807Z,7448.00
2019-05-19T05:56:36.249Z,7812.00
2019-05-19T05:57:36.685Z,7828.00
2019-05-19T05:58:37.127Z,8000.00
2019-05-19T05:59:37.559Z,7868.00
2019-05-19T06:00:38.002Z,7648.00
2019-05-19T06:01:38.442Z,7468.00
2019-05-19T06:02:38.874Z,7396.00
2019-05-19T06:03:39.308Z,7536.00
2019-05-19T06:04:39.752Z,7664.00
2019-05-19T06:05:40.199Z,7808.00
2019-05-19T06:06:40.675Z,7936.00
2019-05-19T06:07:41.073Z,8072.00
2019-05-19T06:08:41.508Z,8268.00
2019-05-19T06:09:41.947Z,8444.00
2019-05-19T06:10:42.388Z,8632.00
2019-05-19T06:11:42.822Z,8908.00
2019-05-19T06:12:43.261Z,9260.00
2019-05-19T06:13:43.705Z,9684.00
2019-05-19T06:14:44.151Z,10016.00
2019-05-19T06:15:44.581Z,10288.00
2019-05-19T06:16:45.035Z,10516.00
2019-05-19T06:17:45.457Z,10756.00
2019-05-19T06:18:45.899Z,10948.00
2019-05-19T06:19:46.336Z,11148.00
2019-05-19T06:20:46.783Z,11292.00
2019-05-19T06:21:47.209Z,11388.00
2019-05-19T06:22:56.409Z,11356.00
2019-05-19T06:23:48.103Z,10948.00
2019-05-19T06:24:48.536Z,11660.00
2019-05-19T06:25:49.015Z,12004.00
2019-05-19T06:26:49.418Z,12032.00
2019-05-19T06:27:49.861Z,11996.00
2019-05-19T06:28:50.301Z,11648.00
2019-05-19T06:29:50.743Z,11160.00
2019-05-19T06:30:51.216Z,11164.00
2019-05-19T06:31:51.633Z,11184.00
2019-05-19T06:32:52.082Z,11260.00
2019-05-19T06:33:52.518Z,11136.00
2019-05-19T06:34:52.971Z,11008.00
2019-05-19T06:35:53.420Z,11112.00
2019-05-19T06:36:55.170Z,11336.00
2019-05-19T06:37:54.308Z,11332.00
2019-05-19T06:38:54.788Z,11636.00
2019-05-19T06:39:55.206Z,11792.00
2019-05-19T06:40:55.657Z,11912.00
2019-05-19T06:41:56.112Z,12052.00
2019-05-19T06:42:56.554Z,12080.00
2019-05-19T06:43:57.000Z,12104.00
2019-05-19T06:44:57.455Z,12236.00
2019-05-19T06:45:57.901Z,12412.00
2019-05-19T06:46:58.357Z,12796.00
2019-05-19T06:47:58.808Z,14112.00
2019-05-19T06:48:59.267Z,24064.00
2019-05-19T06:49:59.715Z,40288.00
2019-05-19T06:51:00.169Z,49312.00
2019-05-19T06:52:00.617Z,48448.00
2019-05-19T06:53:13.663Z,46816.00
2019-05-19T06:54:01.520Z,45952.00
2019-05-19T06:55:01.984Z,44768.00
2019-05-19T06:56:02.443Z,46272.00
2019-05-19T06:57:02.892Z,47680.00
2019-05-19T06:58:03.342Z,49920.00
2019-05-19T06:59:03.799Z,33984.00
2019-05-19T07:00:04.267Z,19840.00
2019-05-19T07:01:04.719Z,20768.00
2019-05-19T07:02:05.166Z,39040.00
2019-05-19T07:03:05.620Z,51840.00
2019-05-19T07:04:06.084Z,53088.00
2019-05-19T07:05:06.532Z,52608.00
2019-05-19T07:06:06.990Z,51136.00
2019-05-19T07:07:07.483Z,49600.00
2019-05-19T07:08:07.906Z,47360.00
2019-05-19T07:09:08.362Z,46464.00
2019-05-19T07:10:08.815Z,47424.00
2019-05-19T07:11:09.276Z,50400.00
2019-05-19T07:12:09.738Z,52128.00
2019-05-19T07:13:10.195Z,53984.00
2019-05-19T07:14:10.653Z,55712.00
2019-05-19T07:15:11.101Z,57280.00
2019-05-19T07:16:11.559Z,58432.00
2019-05-19T07:17:12.017Z,58368.00
2019-05-19T07:18:12.498Z,56704.00
2019-05-19T07:19:12.958Z,54464.00
2019-05-19T07:20:13.396Z,53280.00
2019-05-19T07:21:13.849Z,51424.00
2019-05-19T07:22:14.303Z,48800.00
2019-05-19T07:23:27.197Z,46784.00
2019-05-19T07:24:15.224Z,47072.00
2019-05-19T07:25:15.684Z,50560.00
2019-05-19T07:26:16.144Z,49920.00
2019-05-19T07:27:16.600Z,60480.00
2019-05-19T07:28:17.065Z,64096.00
2019-05-19T07:29:17.514Z,60480.00
2019-05-19T07:30:17.968Z,58368.00
2019-05-19T07:31:18.430Z,56160.00
2019-05-19T07:32:18.887Z,54592.00
2019-05-19T07:33:19.348Z,54176.00
2019-05-19T07:34:19.810Z,55072.00
2019-05-19T07:35:20.264Z,58496.00
2019-05-19T07:36:20.725Z,62400.00
2019-05-19T07:37:21.187Z,67328.00
2019-05-19T07:38:21.648Z,72576.00
2019-05-19T07:39:22.106Z,73280.00
2019-05-19T07:40:22.578Z,68736.00
2019-05-19T07:41:23.026Z,62368.00
2019-05-19T07:42:23.488Z,56416.00
2019-05-19T07:43:24.049Z,51360.00
2019-05-19T07:44:24.409Z,53248.00
2019-05-19T07:45:24.869Z,54080.00
2019-05-19T07:46:25.550Z,55104.00
2019-05-19T07:47:25.976Z,58912.00
2019-05-19T07:48:38.396Z,65888.00
2019-05-19T07:50:41.659Z,73408.00
2019-05-19T07:51:41.985Z,67808.00
2019-05-19T07:53:42.841Z,42144.00
2019-05-19T07:54:37.051Z,20544.00
2019-05-19T07:56:31.683Z,32128.00
2019-05-19T07:57:32.144Z,34208.00
2019-05-19T07:59:27.749Z,55136.00
2019-05-19T08:00:28.210Z,60960.00
2019-05-19T08:02:22.874Z,67200.00
2019-05-19T08:03:23.298Z,72672.00
2019-05-19T08:05:17.925Z,69952.00
2019-05-19T08:06:18.385Z,66208.00
2019-05-19T08:08:14.000Z,70624.00
2019-05-19T08:09:14.456Z,72448.00
2019-05-19T08:11:09.114Z,48736.00
2019-05-19T08:12:09.558Z,82816.00
2019-05-19T08:14:04.195Z,77920.00
2019-05-19T08:15:04.658Z,85376.00
2019-05-19T08:16:59.296Z,53600.00
2019-05-19T08:17:59.752Z,36736.00
2019-05-19T08:19:54.384Z,22560.00
2019-05-19T08:20:54.850Z,25536.00
2019-05-19T08:22:51.425Z,44832.00
2019-05-19T08:23:59.893Z,69088.00
2019-05-19T08:25:44.577Z,52608.00
2019-05-19T08:26:45.032Z,98240.00
2019-05-19T08:28:39.674Z,74656.00
2019-05-19T08:29:40.120Z,38912.00
2019-05-19T08:31:34.756Z,41760.00
2019-05-19T08:32:35.216Z,70848.00
2019-05-19T08:34:29.846Z,81376.00
2019-05-19T08:35:30.301Z,82336.00
2019-05-19T08:37:28.904Z,84736.00
2019-05-19T08:38:29.360Z,85760.00
2019-05-19T08:39:29.829Z,87680.00
2019-05-19T08:40:30.297Z,87616.00
2019-05-19T08:41:30.755Z,86976.00
2019-05-19T08:42:31.210Z,85664.00
2019-05-19T08:43:31.676Z,84448.00
2019-05-19T08:44:32.147Z,82656.00
2019-05-19T08:45:32.602Z,81024.00
2019-05-19T08:46:33.069Z,79168.00
2019-05-19T08:47:33.535Z,76192.00
2019-05-19T08:48:33.993Z,80064.00
2019-05-19T08:49:34.478Z,82688.00
2019-05-19T08:50:34.925Z,83552.00
2019-05-19T08:51:35.386Z,80640.00
2019-05-19T08:52:35.850Z,86496.00
2019-05-19T08:53:36.319Z,90944.00
2019-05-19T08:54:36.780Z,91776.00
2019-05-19T08:55:37.254Z,90752.00
2019-05-19T08:56:37.711Z,87392.00
2019-05-19T08:57:38.181Z,93568.00
2019-05-19T08:58:38.639Z,92928.00
2019-05-19T08:59:39.121Z,92352.00
2019-05-19T09:00:39.577Z,91488.00
2019-05-19T09:01:40.046Z,87936.00
2019-05-19T09:02:40.526Z,89664.00
2019-05-19T09:03:40.978Z,86720.00
2019-05-19T09:04:41.443Z,84608.00
2019-05-19T09:05:41.911Z,79744.00
2019-05-19T09:06:42.375Z,77696.00
2019-05-19T09:07:42.852Z,78976.00
2019-05-19T09:08:43.307Z,80928.00
2019-05-19T09:09:43.777Z,83008.00
2019-05-19T09:10:44.241Z,83936.00
2019-05-19T09:11:47.767Z,85216.00
2019-05-19T09:12:45.174Z,88544.00
2019-05-19T09:13:45.647Z,89216.00
2019-05-19T09:14:46.108Z,90176.00
2019-05-19T09:15:46.574Z,88544.00
2019-05-19T09:16:47.038Z,80448.00
2019-05-19T09:17:47.507Z,73664.00
2019-05-19T09:18:47.977Z,81728.00
2019-05-19T09:19:48.437Z,79968.00
2019-05-19T09:20:48.917Z,65184.00
2019-05-19T09:21:49.371Z,39904.00
2019-05-19T09:22:49.835Z,21792.00
2019-05-19T09:23:50.305Z,28352.00
2019-05-19T09:24:50.765Z,59488.00
2019-05-19T09:25:51.239Z,72960.00
2019-05-19T09:26:52.538Z,75616.00
2019-05-19T09:27:52.161Z,82208.00
2019-05-19T09:28:52.634Z,83808.00
2019-05-19T09:29:53.106Z,85536.00
2019-05-19T09:30:53.594Z,90464.00
2019-05-19T09:31:54.071Z,93632.00
2019-05-19T09:32:55.160Z,92960.00
2019-05-19T09:33:55.907Z,262140.00
2019-05-19T09:34:55.443Z,87712.00
2019-05-19T09:35:56.027Z,86528.00
2019-05-19T09:36:56.378Z,85600.00
2019-05-19T09:37:56.855Z,84000.00
2019-05-19T09:38:57.326Z,81408.00
2019-05-19T09:39:57.797Z,80960.00
2019-05-19T09:40:58.266Z,81728.00
2019-05-19T09:41:58.741Z,81984.00
2019-05-19T09:42:59.247Z,82112.00
2019-05-19T09:43:59.720Z,82624.00
2019-05-19T09:45:00.158Z,84768.00
2019-05-19T09:46:00.628Z,88544.00
2019-05-19T09:47:01.099Z,93440.00
2019-05-19T09:48:01.574Z,93824.00
2019-05-19T09:49:02.045Z,95744.00
2019-05-19T09:50:02.521Z,94880.00
2019-05-19T09:51:02.989Z,95392.00
2019-05-19T09:52:03.471Z,262140.00
2019-05-19T09:53:03.980Z,92288.00
2019-05-19T09:54:04.415Z,91008.00
2019-05-19T09:55:05.120Z,91872.00
2019-05-19T09:56:05.360Z,93216.00
2019-05-19T09:57:05.874Z,95232.00
2019-05-19T09:58:06.305Z,96128.00
2019-05-19T09:59:06.775Z,97472.00
2019-05-19T10:00:07.248Z,98368.00
2019-05-19T10:01:07.720Z,99648.00
2019-05-19T10:02:08.226Z,98816.00
2019-05-19T10:03:08.666Z,98240.00
2019-05-19T10:04:09.143Z,99296.00
2019-05-19T10:05:09.611Z,98912.00
2019-05-19T10:06:10.087Z,96448.00
2019-05-19T10:07:10.605Z,93632.00
2019-05-19T10:08:11.059Z,89344.00
2019-05-19T10:09:11.507Z,90016.00
2019-05-19T10:10:11.977Z,92032.00
2019-05-19T10:11:12.450Z,94240.00
2019-05-19T10:12:12.916Z,93984.00
2019-05-19T10:13:13.403Z,96416.00
2019-05-19T10:14:13.864Z,97472.00
2019-05-19T10:15:14.331Z,93440.00
2019-05-19T10:16:14.802Z,57408.00
2019-05-19T10:17:15.306Z,24992.00
2019-05-19T10:18:15.751Z,21088.00
2019-05-19T10:19:16.212Z,46560.00
2019-05-19T10:20:16.684Z,80384.00
2019-05-19T10:21:17.161Z,262140.00
2019-05-19T10:22:17.623Z,262140.00
2019-05-19T10:23:18.095Z,262140.00
2019-05-19T10:24:18.635Z,97632.00
2019-05-19T10:25:22.305Z,100064.00
2019-05-19T10:26:19.511Z,101696.00
2019-05-19T10:27:21.746Z,99488.00
2019-05-19T10:28:20.454Z,96576.00
2019-05-19T10:29:20.930Z,93216.00
2019-05-19T10:30:21.400Z,88832.00
2019-05-19T10:31:21.872Z,84512.00
2019-05-19T10:32:22.357Z,82048.00
2019-05-19T10:33:22.827Z,79680.00
2019-05-19T10:34:23.295Z,78112.00
2019-05-19T10:35:23.770Z,79424.00
2019-05-19T10:36:24.234Z,83648.00
2019-05-19T10:37:24.723Z,88160.00
2019-05-19T10:38:25.188Z,92768.00
2019-05-19T10:39:25.668Z,98944.00
2019-05-19T10:40:26.137Z,103296.00
2019-05-19T10:41:26.613Z,106304.00
2019-05-19T10:42:27.089Z,105216.00
2019-05-19T10:43:27.560Z,102144.00
2019-05-19T10:44:28.037Z,92384.00
2019-05-19T10:45:28.507Z,83264.00
2019-05-19T10:46:28.989Z,76544.00
2019-05-19T10:47:29.456Z,75104.00
2019-05-19T10:48:29.930Z,74336.00
2019-05-19T10:49:30.396Z,74592.00
2019-05-19T10:50:30.865Z,80480.00
2019-05-19T10:51:31.351Z,84128.00
2019-05-19T10:52:31.860Z,89408.00
2019-05-19T10:53:32.310Z,93344.00
2019-05-19T10:54:32.759Z,97216.00
2019-05-19T10:55:36.379Z,102336.00
2019-05-19T10:56:33.692Z,104576.00
2019-05-19T10:57:34.176Z,85888.00
2019-05-19T10:58:34.665Z,95008.00
2019-05-19T10:59:35.155Z,108576.00
2019-05-19T11:00:35.592Z,104416.00
2019-05-19T11:01:36.114Z,74752.00
2019-05-19T11:02:36.534Z,63104.00
2019-05-19T11:03:37.037Z,53056.00
2019-05-19T11:04:37.481Z,46688.00
2019-05-19T11:05:37.943Z,42720.00
2019-05-19T11:06:38.423Z,54240.00
2019-05-19T11:07:38.885Z,37472.00
2019-05-19T11:08:39.362Z,37664.00
2019-05-19T11:09:39.823Z,21440.00
2019-05-19T11:10:40.300Z,18784.00
2019-05-19T11:11:40.774Z,18496.00
2019-05-19T11:12:41.263Z,18752.00
2019-05-19T11:13:41.707Z,42112.00
2019-05-19T11:14:42.173Z,62208.00
2019-05-19T11:15:42.654Z,67680.00
2019-05-19T11:16:43.219Z,28896.00
2019-05-19T11:17:43.615Z,50016.00
2019-05-19T11:18:44.066Z,32000.00
2019-05-19T11:19:44.536Z,20672.00
2019-05-19T11:20:45.003Z,46336.00
2019-05-19T11:21:45.475Z,9096.00
2019-05-19T11:22:45.940Z,11020.00
2019-05-19T11:23:46.408Z,87840.00
2019-05-19T11:24:46.875Z,97024.00
2019-05-19T11:25:51.454Z,95872.00
2019-05-19T11:26:47.822Z,100224.00
2019-05-19T11:27:48.327Z,102400.00
2019-05-19T11:28:48.749Z,26848.00
2019-05-19T11:29:49.252Z,98688.00
2019-05-19T11:30:49.683Z,100544.00
2019-05-19T11:31:50.144Z,79040.00
2019-05-19T11:32:50.608Z,12204.00
2019-05-19T11:33:51.076Z,9804.00
2019-05-19T11:34:51.550Z,11620.00
2019-05-19T11:35:52.011Z,10764.00
2019-05-19T11:36:52.476Z,11072.00
2019-05-19T11:37:52.928Z,12700.00
2019-05-19T11:38:53.393Z,12188.00
2019-05-19T11:39:53.855Z,10336.00
2019-05-19T11:40:54.314Z,9700.00
2019-05-19T11:41:54.769Z,9876.00
2019-05-19T11:42:55.242Z,9100.00
2019-05-19T11:43:55.694Z,10688.00
2019-05-19T11:44:56.162Z,10960.00
2019-05-19T11:45:56.601Z,10888.00
2019-05-19T11:46:57.062Z,11620.00
2019-05-19T11:47:57.514Z,12540.00
2019-05-19T11:48:57.972Z,13764.00
2019-05-19T11:49:58.425Z,12124.00
2019-05-19T11:50:58.950Z,11592.00
2019-05-19T11:51:59.333Z,10960.00
2019-05-19T11:52:59.787Z,10308.00
2019-05-19T11:54:00.242Z,9300.00
2019-05-19T11:55:00.693Z,8752.00
2019-05-19T11:56:06.609Z,9492.00
2019-05-19T11:57:01.633Z,9548.00
2019-05-19T11:58:02.097Z,9656.00
2019-05-19T11:59:02.517Z,9772.00
2019-05-19T12:00:02.957Z,9804.00
2019-05-19T12:01:03.412Z,9796.00
2019-05-19T12:02:03.858Z,9096.00
2019-05-19T12:03:04.314Z,9208.00
2019-05-19T12:04:04.784Z,9024.00
2019-05-19T12:05:05.230Z,8376.00
2019-05-19T12:06:05.686Z,7452.00
2019-05-19T12:07:06.120Z,7976.00
2019-05-19T12:08:06.576Z,7896.00
2019-05-19T12:09:07.016Z,7744.00
2019-05-19T12:10:07.467Z,7788.00
2019-05-19T12:11:07.938Z,8172.00
2019-05-19T12:12:08.369Z,8632.00
2019-05-19T12:13:08.849Z,8808.00
2019-05-19T12:14:09.271Z,8796.00
2019-05-19T12:15:09.719Z,8620.00
2019-05-19T12:16:10.165Z,7268.00
2019-05-19T12:17:10.644Z,7600.00
2019-05-19T12:18:11.070Z,7160.00
2019-05-19T12:19:11.511Z,7328.00
2019-05-19T12:20:11.969Z,7460.00
2019-05-19T12:21:12.416Z,7504.00
2019-05-19T12:22:12.859Z,7740.00
2019-05-19T12:23:13.361Z,7932.00
2019-05-19T12:24:13.762Z,8008.00
2019-05-19T12:25:14.337Z,8052.00
2019-05-19T12:26:23.318Z,8204.00
2019-05-19T12:27:15.113Z,8376.00
2019-05-19T12:28:15.559Z,8192.00
2019-05-19T12:29:16.012Z,7484.00
2019-05-19T12:30:16.454Z,7076.00
2019-05-19T12:31:16.898Z,7168.00
2019-05-19T12:32:17.354Z,5936.00
2019-05-19T12:33:17.802Z,6384.00
2019-05-19T12:34:18.244Z,6972.00
2019-05-19T12:35:18.704Z,8392.00
2019-05-19T12:36:19.150Z,8916.00
2019-05-19T12:37:19.596Z,9488.00
2019-05-19T12:38:20.038Z,8264.00
2019-05-19T12:39:20.494Z,6784.00
2019-05-19T12:40:22.715Z,6504.00
2019-05-19T12:41:21.381Z,5772.00
2019-05-19T12:42:21.840Z,6112.00
2019-05-19T12:43:22.284Z,7388.00
2019-05-19T12:44:22.723Z,8264.00
2019-05-19T12:45:23.291Z,8220.00
2019-05-19T12:46:23.632Z,7792.00
2019-05-19T12:47:24.070Z,7272.00
2019-05-19T12:48:24.520Z,7104.00
2019-05-19T12:49:24.974Z,6932.00
2019-05-19T12:50:25.425Z,6892.00
2019-05-19T12:51:26.915Z,7080.00